sensor_id;sensor_type;location;lat;lon;timestamp;P1;durP1;ratioP1;P2;durP2;ratioP2
9904;SDS011;4991;43.566;27.820;2023-07-22T00:01:15;15.47;;;13.00;;
9904;SDS011;4991;43.566;27.820;2023-07-22T00:03:41;16.93;;;13.27;;
9904;SDS011;4991;43.566;27.820;2023-07-22T00:06:08;15.43;;;13.67;;
9904;SDS011;4991;43.566;27.820;2023-07-22T00:08:35;15.80;;;13.17;;
9904;SDS011;4991;43.566;27.820;2023-07-22T00:11:02;18.87;;;13.70;;
9904;SDS011;4991;43.566;27.820;2023-07-22T00:13:30;16.57;;;13.03;;
9904;SDS011;4991;43.566;27.820;2023-07-22T00:15:56;15.07;;;13.57;;
9904;SDS011;4991;43.566;27.820;2023-07-22T00:18:22;15.53;;;13.93;;
9904;SDS011;4991;43.566;27.820;2023-07-22T00:20:49;17.33;;;13.37;;
9904;SDS011;4991;43.566;27.820;2023-07-22T00:23:15;15.37;;;13.77;;
9904;SDS011;4991;43.566;27.820;2023-07-22T00:25:41;16.43;;;13.47;;
9904;SDS011;4991;43.566;27.820;2023-07-22T00:28:07;15.10;;;13.57;;
9904;SDS011;4991;43.566;27.820;2023-07-22T00:30:33;16.30;;;14.07;;
9904;SDS011;4991;43.566;27.820;2023-07-22T00:33:00;15.37;;;13.17;;
9904;SDS011;4991;43.566;27.820;2023-07-22T00:35:26;14.50;;;13.00;;
9904;SDS011;4991;43.566;27.820;2023-07-22T00:37:51;15.60;;;13.93;;
9904;SDS011;4991;43.566;27.820;2023-07-22T00:40:17;13.77;;;12.43;;
9904;SDS011;4991;43.566;27.820;2023-07-22T00:42:43;16.10;;;13.00;;
9904;SDS011;4991;43.566;27.820;2023-07-22T00:45:09;15.50;;;13.97;;
9904;SDS011;4991;43.566;27.820;2023-07-22T00:47:34;17.43;;;12.73;;
9904;SDS011;4991;43.566;27.820;2023-07-22T00:50:02;15.23;;;13.70;;
9904;SDS011;4991;43.566;27.820;2023-07-22T00:52:29;15.07;;;13.47;;
9904;SDS011;4991;43.566;27.820;2023-07-22T00:54:55;14.07;;;12.47;;
9904;SDS011;4991;43.566;27.820;2023-07-22T00:57:21;14.13;;;12.67;;
9904;SDS011;4991;43.566;27.820;2023-07-22T00:59:47;14.47;;;12.97;;
9904;SDS011;4991;43.566;27.820;2023-07-22T01:02:14;14.67;;;13.03;;
9904;SDS011;4991;43.566;27.820;2023-07-22T01:04:39;15.50;;;13.20;;
9904;SDS011;4991;43.566;27.820;2023-07-22T01:07:05;14.90;;;13.13;;
9904;SDS011;4991;43.566;27.820;2023-07-22T01:09:38;14.93;;;13.13;;
9904;SDS011;4991;43.566;27.820;2023-07-22T01:12:05;17.10;;;13.10;;
9904;SDS011;4991;43.566;27.820;2023-07-22T01:14:38;14.67;;;12.23;;
9904;SDS011;4991;43.566;27.820;2023-07-22T01:17:06;13.33;;;12.03;;
9904;SDS011;4991;43.566;27.820;2023-07-22T01:19:33;14.03;;;12.50;;
9904;SDS011;4991;43.566;27.820;2023-07-22T01:22:00;14.10;;;12.13;;
9904;SDS011;4991;43.566;27.820;2023-07-22T01:24:28;13.67;;;12.37;;
9904;SDS011;4991;43.566;27.820;2023-07-22T01:26:55;13.77;;;12.30;;
9904;SDS011;4991;43.566;27.820;2023-07-22T01:29:24;15.77;;;12.30;;
9904;SDS011;4991;43.566;27.820;2023-07-22T01:31:53;15.90;;;12.90;;
9904;SDS011;4991;43.566;27.820;2023-07-22T01:34:20;14.77;;;12.00;;
9904;SDS011;4991;43.566;27.820;2023-07-22T01:36:46;13.27;;;11.77;;
9904;SDS011;4991;43.566;27.820;2023-07-22T01:39:16;13.50;;;12.10;;
9904;SDS011;4991;43.566;27.820;2023-07-22T01:41:43;12.73;;;10.93;;
9904;SDS011;4991;43.566;27.820;2023-07-22T01:44:09;14.50;;;11.13;;
9904;SDS011;4991;43.566;27.820;2023-07-22T01:46:36;13.80;;;10.40;;
9904;SDS011;4991;43.566;27.820;2023-07-22T01:49:04;12.53;;;11.43;;
9904;SDS011;4991;43.566;27.820;2023-07-22T01:51:35;11.77;;;10.53;;
9904;SDS011;4991;43.566;27.820;2023-07-22T01:54:03;13.03;;;10.90;;
9904;SDS011;4991;43.566;27.820;2023-07-22T01:56:29;12.03;;;10.37;;
9904;SDS011;4991;43.566;27.820;2023-07-22T01:58:55;12.13;;;10.57;;
9904;SDS011;4991;43.566;27.820;2023-07-22T02:01:20;16.97;;;10.17;;
9904;SDS011;4991;43.566;27.820;2023-07-22T02:03:46;12.27;;;10.47;;
9904;SDS011;4991;43.566;27.820;2023-07-22T02:06:12;11.27;;;9.80;;
9904;SDS011;4991;43.566;27.820;2023-07-22T02:08:38;12.10;;;10.10;;
9904;SDS011;4991;43.566;27.820;2023-07-22T02:11:05;11.13;;;10.03;;
9904;SDS011;4991;43.566;27.820;2023-07-22T02:13:32;10.90;;;9.87;;
9904;SDS011;4991;43.566;27.820;2023-07-22T02:15:59;13.10;;;10.33;;
9904;SDS011;4991;43.566;27.820;2023-07-22T02:18:26;12.67;;;9.73;;
9904;SDS011;4991;43.566;27.820;2023-07-22T02:20:52;17.13;;;10.90;;
9904;SDS011;4991;43.566;27.820;2023-07-22T02:23:18;13.13;;;10.47;;
9904;SDS011;4991;43.566;27.820;2023-07-22T02:25:43;13.20;;;10.37;;
9904;SDS011;4991;43.566;27.820;2023-07-22T02:28:09;14.37;;;10.43;;
9904;SDS011;4991;43.566;27.820;2023-07-22T02:30:38;12.47;;;9.97;;
9904;SDS011;4991;43.566;27.820;2023-07-22T02:33:04;12.07;;;10.07;;
9904;SDS011;4991;43.566;27.820;2023-07-22T02:35:30;14.27;;;10.47;;
9904;SDS011;4991;43.566;27.820;2023-07-22T02:37:57;14.33;;;10.73;;
9904;SDS011;4991;43.566;27.820;2023-07-22T02:40:24;17.33;;;12.07;;
9904;SDS011;4991;43.566;27.820;2023-07-22T02:42:49;12.00;;;10.80;;
9904;SDS011;4991;43.566;27.820;2023-07-22T02:45:15;14.10;;;11.70;;
9904;SDS011;4991;43.566;27.820;2023-07-22T02:47:41;13.80;;;12.07;;
9904;SDS011;4991;43.566;27.820;2023-07-22T02:50:06;15.83;;;11.57;;
9904;SDS011;4991;43.566;27.820;2023-07-22T02:52:32;11.80;;;10.43;;
9904;SDS011;4991;43.566;27.820;2023-07-22T02:55:05;12.33;;;11.13;;
9904;SDS011;4991;43.566;27.820;2023-07-22T02:57:31;13.87;;;11.20;;
9904;SDS011;4991;43.566;27.820;2023-07-22T02:59:57;15.80;;;10.37;;
9904;SDS011;4991;43.566;27.820;2023-07-22T03:02:23;13.93;;;11.47;;
9904;SDS011;4991;43.566;27.820;2023-07-22T03:04:48;12.77;;;10.73;;
9904;SDS011;4991;43.566;27.820;2023-07-22T03:07:14;12.47;;;10.80;;
9904;SDS011;4991;43.566;27.820;2023-07-22T03:09:39;10.83;;;9.73;;
9904;SDS011;4991;43.566;27.820;2023-07-22T03:12:05;11.23;;;10.03;;
9904;SDS011;4991;43.566;27.820;2023-07-22T03:14:31;13.73;;;10.30;;
9904;SDS011;4991;43.566;27.820;2023-07-22T03:17:02;17.60;;;10.83;;
9904;SDS011;4991;43.566;27.820;2023-07-22T03:19:29;12.77;;;9.90;;
9904;SDS011;4991;43.566;27.820;2023-07-22T03:21:55;11.60;;;10.40;;
9904;SDS011;4991;43.566;27.820;2023-07-22T03:24:20;14.53;;;10.20;;
9904;SDS011;4991;43.566;27.820;2023-07-22T03:26:46;12.37;;;10.40;;
9904;SDS011;4991;43.566;27.820;2023-07-22T03:29:12;13.30;;;10.53;;
9904;SDS011;4991;43.566;27.820;2023-07-22T03:31:37;12.67;;;10.23;;
9904;SDS011;4991;43.566;27.820;2023-07-22T03:34:04;10.90;;;9.80;;
9904;SDS011;4991;43.566;27.820;2023-07-22T03:36:29;13.47;;;11.00;;
9904;SDS011;4991;43.566;27.820;2023-07-22T03:38:58;12.90;;;9.97;;
9904;SDS011;4991;43.566;27.820;2023-07-22T03:41:25;11.40;;;10.30;;
9904;SDS011;4991;43.566;27.820;2023-07-22T03:43:51;13.23;;;11.38;;
9904;SDS011;4991;43.566;27.820;2023-07-22T03:46:16;14.38;;;11.10;;
9904;SDS011;4991;43.566;27.820;2023-07-22T03:48:42;12.10;;;10.75;;
9904;SDS011;4991;43.566;27.820;2023-07-22T03:51:07;14.53;;;11.57;;
9904;SDS011;4991;43.566;27.820;2023-07-22T03:53:33;13.30;;;10.70;;
9904;SDS011;4991;43.566;27.820;2023-07-22T03:55:59;12.50;;;11.20;;
9904;SDS011;4991;43.566;27.820;2023-07-22T03:58:24;14.23;;;10.77;;
9904;SDS011;4991;43.566;27.820;2023-07-22T04:00:50;13.00;;;10.18;;
9904;SDS011;4991;43.566;27.820;2023-07-22T04:03:15;13.03;;;10.63;;
9904;SDS011;4991;43.566;27.820;2023-07-22T04:05:41;12.63;;;10.07;;
9904;SDS011;4991;43.566;27.820;2023-07-22T04:08:07;14.18;;;11.25;;
9904;SDS011;4991;43.566;27.820;2023-07-22T04:10:32;13.85;;;10.77;;
9904;SDS011;4991;43.566;27.820;2023-07-22T04:12:58;12.40;;;11.00;;
9904;SDS011;4991;43.566;27.820;2023-07-22T04:15:24;11.93;;;10.73;;
9904;SDS011;4991;43.566;27.820;2023-07-22T04:17:50;12.30;;;10.70;;
9904;SDS011;4991;43.566;27.820;2023-07-22T04:20:15;11.57;;;10.05;;
9904;SDS011;4991;43.566;27.820;2023-07-22T04:22:41;15.43;;;10.35;;
9904;SDS011;4991;43.566;27.820;2023-07-22T04:25:07;12.38;;;10.57;;
9904;SDS011;4991;43.566;27.820;2023-07-22T04:27:34;11.85;;;10.38;;
9904;SDS011;4991;43.566;27.820;2023-07-22T04:29:59;12.80;;;10.13;;
9904;SDS011;4991;43.566;27.820;2023-07-22T04:32:25;11.50;;;9.90;;
9904;SDS011;4991;43.566;27.820;2023-07-22T04:34:51;13.52;;;10.63;;
9904;SDS011;4991;43.566;27.820;2023-07-22T04:37:16;12.93;;;10.25;;
9904;SDS011;4991;43.566;27.820;2023-07-22T04:39:42;11.93;;;10.68;;
9904;SDS011;4991;43.566;27.820;2023-07-22T04:42:11;13.65;;;11.27;;
9904;SDS011;4991;43.566;27.820;2023-07-22T04:44:37;11.25;;;10.15;;
9904;SDS011;4991;43.566;27.820;2023-07-22T04:47:02;12.77;;;9.52;;
9904;SDS011;4991;43.566;27.820;2023-07-22T04:49:28;11.85;;;9.68;;
9904;SDS011;4991;43.566;27.820;2023-07-22T04:51:54;12.48;;;9.82;;
9904;SDS011;4991;43.566;27.820;2023-07-22T04:54:19;12.80;;;9.48;;
9904;SDS011;4991;43.566;27.820;2023-07-22T04:56:45;12.80;;;10.27;;
9904;SDS011;4991;43.566;27.820;2023-07-22T04:59:10;11.35;;;9.35;;
9904;SDS011;4991;43.566;27.820;2023-07-22T05:01:37;11.27;;;8.70;;
9904;SDS011;4991;43.566;27.820;2023-07-22T05:04:03;9.93;;;8.45;;
9904;SDS011;4991;43.566;27.820;2023-07-22T05:06:29;10.95;;;9.93;;
9904;SDS011;4991;43.566;27.820;2023-07-22T05:08:55;13.70;;;10.95;;
9904;SDS011;4991;43.566;27.820;2023-07-22T05:11:21;10.02;;;8.60;;
9904;SDS011;4991;43.566;27.820;2023-07-22T05:13:48;10.40;;;7.88;;
9904;SDS011;4991;43.566;27.820;2023-07-22T05:16:15;10.93;;;8.30;;
9904;SDS011;4991;43.566;27.820;2023-07-22T05:18:40;8.27;;;7.28;;
9904;SDS011;4991;43.566;27.820;2023-07-22T05:21:06;10.40;;;7.75;;
9904;SDS011;4991;43.566;27.820;2023-07-22T05:23:32;7.70;;;6.97;;
9904;SDS011;4991;43.566;27.820;2023-07-22T05:25:57;9.82;;;6.57;;
9904;SDS011;4991;43.566;27.820;2023-07-22T05:28:23;8.77;;;6.85;;
9904;SDS011;4991;43.566;27.820;2023-07-22T05:30:48;9.65;;;7.95;;
9904;SDS011;4991;43.566;27.820;2023-07-22T05:33:14;14.07;;;10.20;;
9904;SDS011;4991;43.566;27.820;2023-07-22T05:35:40;13.13;;;7.50;;
9904;SDS011;4991;43.566;27.820;2023-07-22T05:38:06;7.78;;;6.25;;
9904;SDS011;4991;43.566;27.820;2023-07-22T05:40:31;9.68;;;6.10;;
9904;SDS011;4991;43.566;27.820;2023-07-22T05:42:57;9.05;;;5.63;;
9904;SDS011;4991;43.566;27.820;2023-07-22T05:45:23;11.45;;;6.20;;
9904;SDS011;4991;43.566;27.820;2023-07-22T05:47:48;10.38;;;6.20;;
9904;SDS011;4991;43.566;27.820;2023-07-22T05:50:14;6.45;;;5.70;;
9904;SDS011;4991;43.566;27.820;2023-07-22T05:52:40;6.72;;;5.93;;
9904;SDS011;4991;43.566;27.820;2023-07-22T05:55:05;8.13;;;5.68;;
9904;SDS011;4991;43.566;27.820;2023-07-22T05:57:31;6.82;;;6.10;;
9904;SDS011;4991;43.566;27.820;2023-07-22T05:59:56;6.90;;;5.70;;
9904;SDS011;4991;43.566;27.820;2023-07-22T06:02:22;9.02;;;5.68;;
9904;SDS011;4991;43.566;27.820;2023-07-22T06:04:48;8.50;;;6.20;;
9904;SDS011;4991;43.566;27.820;2023-07-22T06:07:13;9.90;;;5.80;;
9904;SDS011;4991;43.566;27.820;2023-07-22T06:09:39;7.80;;;5.68;;
9904;SDS011;4991;43.566;27.820;2023-07-22T06:12:04;8.93;;;5.10;;
9904;SDS011;4991;43.566;27.820;2023-07-22T06:14:30;6.68;;;5.10;;
9904;SDS011;4991;43.566;27.820;2023-07-22T06:16:56;6.70;;;5.07;;
9904;SDS011;4991;43.566;27.820;2023-07-22T06:19:22;5.60;;;4.53;;
9904;SDS011;4991;43.566;27.820;2023-07-22T06:21:49;8.48;;;4.88;;
9904;SDS011;4991;43.566;27.820;2023-07-22T06:24:15;5.90;;;5.00;;
9904;SDS011;4991;43.566;27.820;2023-07-22T06:26:41;6.07;;;4.57;;
9904;SDS011;4991;43.566;27.820;2023-07-22T06:29:07;6.25;;;4.28;;
9904;SDS011;4991;43.566;27.820;2023-07-22T06:31:32;6.18;;;4.18;;
9904;SDS011;4991;43.566;27.820;2023-07-22T06:33:58;10.43;;;4.32;;
9904;SDS011;4991;43.566;27.820;2023-07-22T06:36:25;8.82;;;4.85;;
9904;SDS011;4991;43.566;27.820;2023-07-22T06:38:51;4.88;;;3.78;;
9904;SDS011;4991;43.566;27.820;2023-07-22T06:41:17;5.22;;;4.18;;
9904;SDS011;4991;43.566;27.820;2023-07-22T06:43:44;6.50;;;3.92;;
9904;SDS011;4991;43.566;27.820;2023-07-22T06:46:10;5.47;;;4.00;;
9904;SDS011;4991;43.566;27.820;2023-07-22T06:48:35;4.55;;;4.13;;
9904;SDS011;4991;43.566;27.820;2023-07-22T06:51:01;8.23;;;4.30;;
9904;SDS011;4991;43.566;27.820;2023-07-22T06:53:27;9.65;;;4.93;;
9904;SDS011;4991;43.566;27.820;2023-07-22T06:55:53;6.80;;;4.45;;
9904;SDS011;4991;43.566;27.820;2023-07-22T06:58:19;5.93;;;4.10;;
9904;SDS011;4991;43.566;27.820;2023-07-22T07:00:45;5.43;;;4.28;;
9904;SDS011;4991;43.566;27.820;2023-07-22T07:03:11;5.78;;;3.97;;
9904;SDS011;4991;43.566;27.820;2023-07-22T07:05:37;7.10;;;4.30;;
9904;SDS011;4991;43.566;27.820;2023-07-22T07:08:07;5.15;;;3.83;;
9904;SDS011;4991;43.566;27.820;2023-07-22T07:10:37;6.75;;;4.20;;
9904;SDS011;4991;43.566;27.820;2023-07-22T07:13:04;5.07;;;4.55;;
9904;SDS011;4991;43.566;27.820;2023-07-22T07:15:29;6.88;;;4.30;;
9904;SDS011;4991;43.566;27.820;2023-07-22T07:17:55;5.28;;;4.47;;
9904;SDS011;4991;43.566;27.820;2023-07-22T07:20:21;5.65;;;4.47;;
9904;SDS011;4991;43.566;27.820;2023-07-22T07:22:46;8.65;;;4.30;;
9904;SDS011;4991;43.566;27.820;2023-07-22T07:25:12;11.20;;;4.88;;
9904;SDS011;4991;43.566;27.820;2023-07-22T07:27:40;10.77;;;4.35;;
9904;SDS011;4991;43.566;27.820;2023-07-22T07:30:06;6.05;;;4.45;;
9904;SDS011;4991;43.566;27.820;2023-07-22T07:32:34;5.25;;;4.40;;
9904;SDS011;4991;43.566;27.820;2023-07-22T07:35:00;8.32;;;4.57;;
9904;SDS011;4991;43.566;27.820;2023-07-22T07:37:26;7.10;;;4.70;;
9904;SDS011;4991;43.566;27.820;2023-07-22T07:39:51;8.32;;;4.82;;
9904;SDS011;4991;43.566;27.820;2023-07-22T07:42:17;5.50;;;4.63;;
9904;SDS011;4991;43.566;27.820;2023-07-22T07:44:43;7.25;;;4.68;;
9904;SDS011;4991;43.566;27.820;2023-07-22T07:47:09;9.65;;;5.00;;
9904;SDS011;4991;43.566;27.820;2023-07-22T07:49:35;5.45;;;4.80;;
9904;SDS011;4991;43.566;27.820;2023-07-22T07:52:01;7.82;;;5.00;;
9904;SDS011;4991;43.566;27.820;2023-07-22T07:54:26;9.57;;;5.13;;
9904;SDS011;4991;43.566;27.820;2023-07-22T07:56:52;6.80;;;4.50;;
9904;SDS011;4991;43.566;27.820;2023-07-22T07:59:18;6.85;;;4.82;;
9904;SDS011;4991;43.566;27.820;2023-07-22T08:01:46;7.43;;;5.13;;
9904;SDS011;4991;43.566;27.820;2023-07-22T08:04:12;11.43;;;5.63;;
9904;SDS011;4991;43.566;27.820;2023-07-22T08:06:38;8.05;;;5.00;;
9904;SDS011;4991;43.566;27.820;2023-07-22T08:09:04;7.45;;;4.60;;
9904;SDS011;4991;43.566;27.820;2023-07-22T08:11:36;5.90;;;4.72;;
9904;SDS011;4991;43.566;27.820;2023-07-22T08:14:03;6.65;;;4.50;;
9904;SDS011;4991;43.566;27.820;2023-07-22T08:16:30;5.65;;;4.38;;
9904;SDS011;4991;43.566;27.820;2023-07-22T08:18:56;7.30;;;4.30;;
9904;SDS011;4991;43.566;27.820;2023-07-22T08:21:22;7.22;;;4.45;;
9904;SDS011;4991;43.566;27.820;2023-07-22T08:23:48;5.68;;;3.95;;
9904;SDS011;4991;43.566;27.820;2023-07-22T08:26:14;7.88;;;4.55;;
9904;SDS011;4991;43.566;27.820;2023-07-22T08:28:39;8.27;;;5.25;;
9904;SDS011;4991;43.566;27.820;2023-07-22T08:31:05;9.60;;;4.70;;
9904;SDS011;4991;43.566;27.820;2023-07-22T08:33:31;5.38;;;4.53;;
9904;SDS011;4991;43.566;27.820;2023-07-22T08:35:56;8.13;;;5.03;;
9904;SDS011;4991;43.566;27.820;2023-07-22T08:38:22;6.93;;;4.82;;
9904;SDS011;4991;43.566;27.820;2023-07-22T08:40:48;7.43;;;4.10;;
9904;SDS011;4991;43.566;27.820;2023-07-22T08:43:16;7.85;;;4.93;;
9904;SDS011;4991;43.566;27.820;2023-07-22T08:45:45;7.63;;;4.90;;
9904;SDS011;4991;43.566;27.820;2023-07-22T08:48:13;8.57;;;4.97;;
9904;SDS011;4991;43.566;27.820;2023-07-22T08:50:53;7.47;;;4.53;;
9904;SDS011;4991;43.566;27.820;2023-07-22T08:53:19;6.72;;;4.57;;
9904;SDS011;4991;43.566;27.820;2023-07-22T08:55:45;6.90;;;4.07;;
9904;SDS011;4991;43.566;27.820;2023-07-22T08:58:13;7.75;;;4.20;;
9904;SDS011;4991;43.566;27.820;2023-07-22T09:00:39;9.02;;;4.25;;
9904;SDS011;4991;43.566;27.820;2023-07-22T09:03:05;11.48;;;4.55;;
9904;SDS011;4991;43.566;27.820;2023-07-22T09:05:32;6.43;;;3.97;;
9904;SDS011;4991;43.566;27.820;2023-07-22T09:07:58;8.13;;;4.68;;
9904;SDS011;4991;43.566;27.820;2023-07-22T09:10:27;8.15;;;4.47;;
9904;SDS011;4991;43.566;27.820;2023-07-22T09:12:53;10.27;;;4.28;;
9904;SDS011;4991;43.566;27.820;2023-07-22T09:15:20;6.68;;;4.28;;
9904;SDS011;4991;43.566;27.820;2023-07-22T09:17:46;6.78;;;4.15;;
9904;SDS011;4991;43.566;27.820;2023-07-22T09:20:12;13.73;;;4.25;;
9904;SDS011;4991;43.566;27.820;2023-07-22T09:22:51;5.72;;;4.13;;
9904;SDS011;4991;43.566;27.820;2023-07-22T09:25:20;6.65;;;4.13;;
9904;SDS011;4991;43.566;27.820;2023-07-22T09:27:48;7.13;;;4.82;;
9904;SDS011;4991;43.566;27.820;2023-07-22T09:32:54;6.85;;;4.75;;
9904;SDS011;4991;43.566;27.820;2023-07-22T09:35:21;6.53;;;4.10;;
9904;SDS011;4991;43.566;27.820;2023-07-22T09:37:47;8.75;;;3.78;;
9904;SDS011;4991;43.566;27.820;2023-07-22T09:40:14;8.15;;;3.50;;
9904;SDS011;4991;43.566;27.820;2023-07-22T09:42:43;4.00;;;3.22;;
9904;SDS011;4991;43.566;27.820;2023-07-22T09:45:10;10.05;;;3.60;;
9904;SDS011;4991;43.566;27.820;2023-07-22T09:47:39;5.40;;;3.50;;
9904;SDS011;4991;43.566;27.820;2023-07-22T09:50:06;8.77;;;3.50;;
9904;SDS011;4991;43.566;27.820;2023-07-22T09:52:31;8.77;;;3.63;;
9904;SDS011;4991;43.566;27.820;2023-07-22T09:55:00;10.45;;;3.45;;
9904;SDS011;4991;43.566;27.820;2023-07-22T09:57:25;9.68;;;4.10;;
9904;SDS011;4991;43.566;27.820;2023-07-22T09:59:51;7.38;;;2.95;;
9904;SDS011;4991;43.566;27.820;2023-07-22T10:02:18;5.85;;;3.97;;
9904;SDS011;4991;43.566;27.820;2023-07-22T10:04:47;5.90;;;3.33;;
9904;SDS011;4991;43.566;27.820;2023-07-22T10:07:17;5.60;;;3.42;;
9904;SDS011;4991;43.566;27.820;2023-07-22T10:09:44;8.57;;;3.25;;
9904;SDS011;4991;43.566;27.820;2023-07-22T10:12:12;5.55;;;3.20;;
9904;SDS011;4991;43.566;27.820;2023-07-22T10:14:40;4.82;;;2.90;;
9904;SDS011;4991;43.566;27.820;2023-07-22T10:17:06;6.43;;;3.00;;
9904;SDS011;4991;43.566;27.820;2023-07-22T10:19:34;7.15;;;3.53;;
9904;SDS011;4991;43.566;27.820;2023-07-22T10:22:00;4.93;;;3.00;;
9904;SDS011;4991;43.566;27.820;2023-07-22T10:24:26;6.93;;;3.10;;
9904;SDS011;4991;43.566;27.820;2023-07-22T10:26:53;7.72;;;3.17;;
9904;SDS011;4991;43.566;27.820;2023-07-22T10:29:20;3.75;;;2.90;;
9904;SDS011;4991;43.566;27.820;2023-07-22T10:31:45;8.30;;;3.35;;
9904;SDS011;4991;43.566;27.820;2023-07-22T10:34:11;5.30;;;2.90;;
9904;SDS011;4991;43.566;27.820;2023-07-22T10:36:36;6.40;;;3.38;;
9904;SDS011;4991;43.566;27.820;2023-07-22T10:39:02;4.93;;;3.05;;
9904;SDS011;4991;43.566;27.820;2023-07-22T10:41:28;4.32;;;3.22;;
9904;SDS011;4991;43.566;27.820;2023-07-22T10:43:54;6.97;;;3.40;;
9904;SDS011;4991;43.566;27.820;2023-07-22T10:46:31;4.88;;;3.13;;
9904;SDS011;4991;43.566;27.820;2023-07-22T10:49:09;5.05;;;3.22;;
9904;SDS011;4991;43.566;27.820;2023-07-22T10:51:38;5.38;;;2.67;;
9904;SDS011;4991;43.566;27.820;2023-07-22T10:54:13;5.18;;;3.13;;
9904;SDS011;4991;43.566;27.820;2023-07-22T10:56:43;5.90;;;3.20;;
9904;SDS011;4991;43.566;27.820;2023-07-22T10:59:10;4.65;;;3.25;;
9904;SDS011;4991;43.566;27.820;2023-07-22T11:01:36;4.03;;;3.15;;
9904;SDS011;4991;43.566;27.820;2023-07-22T11:06:57;5.10;;;2.78;;
9904;SDS011;4991;43.566;27.820;2023-07-22T11:12:05;4.72;;;2.72;;
9904;SDS011;4991;43.566;27.820;2023-07-22T11:14:35;6.63;;;3.33;;
9904;SDS011;4991;43.566;27.820;2023-07-22T11:17:04;6.28;;;3.22;;
9904;SDS011;4991;43.566;27.820;2023-07-22T11:19:31;8.82;;;2.78;;
9904;SDS011;4991;43.566;27.820;2023-07-22T11:21:58;4.68;;;3.10;;
9904;SDS011;4991;43.566;27.820;2023-07-22T11:24:24;7.10;;;2.80;;
9904;SDS011;4991;43.566;27.820;2023-07-22T11:26:51;4.35;;;3.00;;
9904;SDS011;4991;43.566;27.820;2023-07-22T11:29:17;7.20;;;2.80;;
9904;SDS011;4991;43.566;27.820;2023-07-22T11:31:44;5.28;;;2.58;;
9904;SDS011;4991;43.566;27.820;2023-07-22T11:34:12;5.88;;;3.35;;
9904;SDS011;4991;43.566;27.820;2023-07-22T11:36:40;6.70;;;2.88;;
9904;SDS011;4991;43.566;27.820;2023-07-22T11:39:13;10.65;;;2.83;;
9904;SDS011;4991;43.566;27.820;2023-07-22T11:41:40;5.57;;;3.22;;
9904;SDS011;4991;43.566;27.820;2023-07-22T11:44:07;7.07;;;3.42;;
9904;SDS011;4991;43.566;27.820;2023-07-22T11:46:35;5.30;;;2.70;;
9904;SDS011;4991;43.566;27.820;2023-07-22T11:49:11;4.00;;;2.70;;
9904;SDS011;4991;43.566;27.820;2023-07-22T11:51:37;6.60;;;3.00;;
9904;SDS011;4991;43.566;27.820;2023-07-22T11:54:07;4.60;;;2.58;;
9904;SDS011;4991;43.566;27.820;2023-07-22T11:56:33;4.18;;;2.67;;
9904;SDS011;4991;43.566;27.820;2023-07-22T11:58:59;5.07;;;2.22;;
9904;SDS011;4991;43.566;27.820;2023-07-22T12:01:29;5.82;;;3.03;;
9904;SDS011;4991;43.566;27.820;2023-07-22T12:03:58;3.83;;;2.47;;
9904;SDS011;4991;43.566;27.820;2023-07-22T12:06:26;8.15;;;2.58;;
9904;SDS011;4991;43.566;27.820;2023-07-22T12:08:53;5.82;;;2.60;;
9904;SDS011;4991;43.566;27.820;2023-07-22T12:11:22;6.47;;;3.08;;
9904;SDS011;4991;43.566;27.820;2023-07-22T12:14:09;5.13;;;2.30;;
9904;SDS011;4991;43.566;27.820;2023-07-22T12:16:39;4.97;;;2.50;;
9904;SDS011;4991;43.566;27.820;2023-07-22T12:19:07;4.13;;;2.65;;
9904;SDS011;4991;43.566;27.820;2023-07-22T12:21:34;6.35;;;2.83;;
9904;SDS011;4991;43.566;27.820;2023-07-22T12:24:00;4.30;;;2.55;;
9904;SDS011;4991;43.566;27.820;2023-07-22T12:26:26;3.55;;;2.38;;
9904;SDS011;4991;43.566;27.820;2023-07-22T12:28:52;6.32;;;2.90;;
9904;SDS011;4991;43.566;27.820;2023-07-22T12:31:18;6.28;;;2.45;;
9904;SDS011;4991;43.566;27.820;2023-07-22T12:33:43;4.57;;;2.55;;
9904;SDS011;4991;43.566;27.820;2023-07-22T12:36:10;4.00;;;2.63;;
9904;SDS011;4991;43.566;27.820;2023-07-22T12:38:36;4.35;;;2.92;;
9904;SDS011;4991;43.566;27.820;2023-07-22T12:41:01;7.22;;;2.70;;
9904;SDS011;4991;43.566;27.820;2023-07-22T12:43:27;7.03;;;2.50;;
9904;SDS011;4991;43.566;27.820;2023-07-22T12:45:53;5.82;;;2.78;;
9904;SDS011;4991;43.566;27.820;2023-07-22T12:48:19;8.02;;;3.10;;
9904;SDS011;4991;43.566;27.820;2023-07-22T12:50:44;5.90;;;2.95;;
9904;SDS011;4991;43.566;27.820;2023-07-22T12:53:10;3.80;;;2.33;;
9904;SDS011;4991;43.566;27.820;2023-07-22T12:55:36;6.78;;;2.70;;
9904;SDS011;4991;43.566;27.820;2023-07-22T12:58:01;7.15;;;2.72;;
9904;SDS011;4991;43.566;27.820;2023-07-22T13:00:28;7.30;;;2.67;;
9904;SDS011;4991;43.566;27.820;2023-07-22T13:02:53;10.60;;;3.10;;
9904;SDS011;4991;43.566;27.820;2023-07-22T13:05:19;6.60;;;2.83;;
9904;SDS011;4991;43.566;27.820;2023-07-22T13:07:45;6.40;;;3.45;;
9904;SDS011;4991;43.566;27.820;2023-07-22T13:10:10;5.85;;;2.90;;
9904;SDS011;4991;43.566;27.820;2023-07-22T13:12:40;6.65;;;2.92;;
9904;SDS011;4991;43.566;27.820;2023-07-22T13:15:05;4.85;;;2.90;;
9904;SDS011;4991;43.566;27.820;2023-07-22T13:17:31;8.02;;;3.38;;
9904;SDS011;4991;43.566;27.820;2023-07-22T13:19:57;8.25;;;3.42;;
9904;SDS011;4991;43.566;27.820;2023-07-22T13:22:23;9.70;;;3.20;;
9904;SDS011;4991;43.566;27.820;2023-07-22T13:24:48;7.88;;;3.50;;
9904;SDS011;4991;43.566;27.820;2023-07-22T13:27:14;6.47;;;3.00;;
9904;SDS011;4991;43.566;27.820;2023-07-22T13:29:40;7.43;;;2.75;;
9904;SDS011;4991;43.566;27.820;2023-07-22T13:32:05;5.80;;;3.05;;
9904;SDS011;4991;43.566;27.820;2023-07-22T13:34:31;6.88;;;2.65;;
9904;SDS011;4991;43.566;27.820;2023-07-22T13:36:57;5.18;;;2.85;;
9904;SDS011;4991;43.566;27.820;2023-07-22T13:39:23;5.75;;;3.03;;
9904;SDS011;4991;43.566;27.820;2023-07-22T13:41:49;5.40;;;3.13;;
9904;SDS011;4991;43.566;27.820;2023-07-22T13:44:15;7.72;;;3.35;;
9904;SDS011;4991;43.566;27.820;2023-07-22T13:46:41;11.45;;;3.33;;
9904;SDS011;4991;43.566;27.820;2023-07-22T13:49:07;8.70;;;3.67;;
9904;SDS011;4991;43.566;27.820;2023-07-22T13:51:33;6.03;;;3.08;;
9904;SDS011;4991;43.566;27.820;2023-07-22T13:53:58;6.05;;;3.60;;
9904;SDS011;4991;43.566;27.820;2023-07-22T13:56:24;6.13;;;3.42;;
9904;SDS011;4991;43.566;27.820;2023-07-22T13:58:50;5.60;;;2.83;;
9904;SDS011;4991;43.566;27.820;2023-07-22T14:01:16;8.43;;;3.55;;
9904;SDS011;4991;43.566;27.820;2023-07-22T14:03:41;7.50;;;2.88;;
9904;SDS011;4991;43.566;27.820;2023-07-22T14:06:07;8.27;;;3.15;;
9904;SDS011;4991;43.566;27.820;2023-07-22T14:08:36;9.55;;;3.42;;
9904;SDS011;4991;43.566;27.820;2023-07-22T14:11:01;10.27;;;3.97;;
9904;SDS011;4991;43.566;27.820;2023-07-22T14:13:27;8.70;;;2.92;;
9904;SDS011;4991;43.566;27.820;2023-07-22T14:15:53;6.32;;;3.47;;
9904;SDS011;4991;43.566;27.820;2023-07-22T14:18:18;11.32;;;3.90;;
9904;SDS011;4991;43.566;27.820;2023-07-22T14:20:44;10.85;;;3.45;;
9904;SDS011;4991;43.566;27.820;2023-07-22T14:23:10;7.25;;;3.58;;
9904;SDS011;4991;43.566;27.820;2023-07-22T14:25:37;8.00;;;3.20;;
9904;SDS011;4991;43.566;27.820;2023-07-22T14:28:02;11.90;;;3.85;;
9904;SDS011;4991;43.566;27.820;2023-07-22T14:30:30;5.22;;;3.03;;
9904;SDS011;4991;43.566;27.820;2023-07-22T14:32:56;8.30;;;3.30;;
9904;SDS011;4991;43.566;27.820;2023-07-22T14:35:21;9.38;;;3.50;;
9904;SDS011;4991;43.566;27.820;2023-07-22T14:37:47;10.30;;;4.22;;
9904;SDS011;4991;43.566;27.820;2023-07-22T14:40:14;5.43;;;3.10;;
9904;SDS011;4991;43.566;27.820;2023-07-22T14:42:40;6.38;;;3.63;;
9904;SDS011;4991;43.566;27.820;2023-07-22T14:45:06;6.82;;;3.65;;
9904;SDS011;4991;43.566;27.820;2023-07-22T14:47:32;8.18;;;3.58;;
9904;SDS011;4991;43.566;27.820;2023-07-22T14:49:58;8.18;;;2.92;;
9904;SDS011;4991;43.566;27.820;2023-07-22T14:52:24;10.43;;;3.25;;
9904;SDS011;4991;43.566;27.820;2023-07-22T14:54:49;10.43;;;3.35;;